Butterfly — C6UP2 — position and weather

sailwx.info

Track history (hours):
 
Tides and Currents Weather Stations Pressure Air Temp Water Temp Dewpoint Dewpoint Depression Visibility Wind Speed Wind Dir Waves Ship Positions

Butterfly

Last reported at 2017-Oct-18 09:50 UTC. Time now 2017-Oct-20 16:11 UTC.
Position N 29°18' W 094°30'.

Length 182 m; draft 7.7 m.

Type: Ship. MMSI: 311985000.

Date/timePositionNaut miles runAvg speedWind from/ knotsBaromVisibWave heightAir tempDewpointWater temp
2017-Oct-18 09:50N 29°18' W 094°30'0 0.0
2017-Oct-18 09:26N 29°18' W 094°30'0 0.0
2017-Oct-18 08:29N 29°18' W 094°30'  
2017-Oct-14 05:50N 29°18' W 094°30'  
2017-Oct-09 02:19N 25°28' W 079°36'411.1
2017-Oct-09 01:57N 25°32' W 079°36'810.9
2017-Oct-09 01:11N 25°40' W 079°34'1110.5
2017-Oct-09 00:06N 25°51' W 079°32'110.5
2017-Oct-08 23:58N 25°53' W 079°32'610.4
2017-Oct-08 23:23N 25°59' W 079°31'410.4
2017-Oct-08 23:00N 26°03' W 079°31'510.6
2017-Oct-08 22:30N 26°08' W 079°30'611.1
2017-Oct-08 22:00N 26°13' W 079°29'  
Track history (hours):
 
Tides and Currents Weather Stations Pressure Air Temp Water Temp Dewpoint Dewpoint Depression Visibility Wind Speed Wind Dir Waves Ship Positions

Butterfly

Last reported at 2017-Oct-18 09:50 UTC. Time now 2017-Oct-20 16:11 UTC.
Position N 29°18' W 094°30'.

Length 182 m; draft 7.7 m.

Type: Ship. MMSI: 311985000.

Date/timePositionNaut miles runAvg speedWind from/ knotsBaromVisibWave heightAir tempDewpointWater temp
2017-Oct-18 09:50N 29°18' W 094°30'0 0.0
2017-Oct-18 09:26N 29°18' W 094°30'0 0.0
2017-Oct-18 08:29N 29°18' W 094°30'  
2017-Oct-14 05:50N 29°18' W 094°30'  
2017-Oct-09 02:19N 25°28' W 079°36'411.1
2017-Oct-09 01:57N 25°32' W 079°36'810.9
2017-Oct-09 01:11N 25°40' W 079°34'1110.5
2017-Oct-09 00:06N 25°51' W 079°32'110.5
2017-Oct-08 23:58N 25°53' W 079°32'610.4
2017-Oct-08 23:23N 25°59' W 079°31'410.4
2017-Oct-08 23:00N 26°03' W 079°31'510.6
2017-Oct-08 22:30N 26°08' W 079°30'611.1
2017-Oct-08 22:00N 26°13' W 079°29'  

Dump ship's entire track history